Aviation Digital Data Service (ADDS)

Output produced by METARs form (1607 UTC 03 December 2021)
found at http://www.aviationweather.gov/metar/data/
 
VTUK 031600Z 07005KT 9000 NSC 19/10 Q1020 NOSIG
VTUK 031500Z 07005KT 8000 NSC 20/08 Q1020 NOSIG
VTUK 031400Z 06005KT 8000 NSC 20/08 Q1020 NOSIG
VTUK 031300Z 04007KT 8000 NSC 20/06 Q1019 NOSIG
VTUK 031200Z 05006KT 8000 NSC 21/06 Q1018 NOSIG
VTUK 031100Z 05005KT 9000 NSC 23/06 Q1017 NOSIG
VTUK 031000Z 06004KT 030V090 CAVOK 25/04 Q1016 NOSIG
VTUK 030900Z 06006KT 020V090 CAVOK 26/05 Q1016 NOSIG
VTUK 030800Z 03005KT 340V120 CAVOK 27/06 Q1016 NOSIG
VTUK 030700Z 04006KT 340V150 CAVOK 26/05 Q1017 NOSIG
VTUK 030600Z 04008KT 340V120 CAVOK 26/07 Q1018 NOSIG
VTUK 030500Z VRB06KT CAVOK 25/07 Q1019 NOSIG
VTUK 030400Z 02007KT 340V060 9000 NSC 24/08 Q1021 NOSIG
VTUK 030300Z 05007KT 020V130 9000 NSC 22/09 Q1021 NOSIG
VTUK 030200Z 05008KT 010V090 8000 NSC 20/10 Q1021 NOSIG
VTUK 030100Z 01004KT 7000 NSC 17/13 Q1021 NOSIG
VTUK 030000Z 36002KT 6000 NSC 15/13 Q1020 NOSIG
VTUK 022300Z 01003KT 8000 NSC 15/13 Q1020 NOSIG
VTUK 022200Z 01003KT 8000 NSC 15/13 Q1019 NOSIG
VTUK 022100Z 01004KT 8000 NSC 16/14 Q1019 NOSIG
VTUK 022000Z 01003KT 9000 NSC 16/14 Q1018 NOSIG
VTUK 021900Z 08004KT 050V110 9000 NSC 18/14 Q1019 NOSIG
VTUK 021800Z 07004KT 040V110 9000 NSC 18/14 Q1019 NOSIG
VTUK 021700Z 06005KT 030V090 9000 NSC 19/13 Q1019 NOSIG
VTUK 021600Z 06005KT 030V090 9000 NSC 20/13 Q1019 NOSIG
TAF VTUK 031100Z 0312/0412 05005KT 8000 NSC